Time;durP1;ratioP1;P1;durP2;ratioP2;P2;SDS_P1;SDS_P2;PMS_P1;PMS_P2;Temp;Humidity;BMP_temperature;BMP_pressure;BME280_temperature;BME280_humidity;BME280_pressure;Samples;Min_cycle;Max_cycle;Signal;HPM_P1;HPM_P2
2021/05/15 00:00:17;;;;;;;;;;;;;;;20.38;52.46;100365.75;2106740;28;3894;-36
2021/05/15 00:01:17;;;;;;;;;;;;;;;20.37;52.49;100364.09;2105936;28;3886;-36
2021/05/15 00:02:18;;;;;;;;;;;;;;;20.38;52.51;100366.59;2105208;28;4069;-32
2021/05/15 00:03:18;;;;;;;;;;;;;;;20.37;52.44;100364.94;2106141;28;3960;-33
2021/05/15 00:04:18;;;;;;;;;;;;;;;20.38;52.47;100366.59;2105976;28;3880;-31
2021/05/15 00:05:18;;;;;;;;;;;;;;;20.38;52.50;100363.75;2104868;28;4050;-33
2021/05/15 00:06:18;;;;;;;;;;;;;;;20.38;52.42;100366.59;2106244;28;5040;-31
2021/05/15 00:07:18;;;;;;;;;;;;;;;20.37;52.50;100370.63;2105693;28;4215;-34
2021/05/15 00:08:18;;;;;;;;;;;;;;;20.38;52.59;100366.59;2106335;28;3878;-32
2021/05/15 00:09:19;;;;;;;;;;;;;;;20.38;52.47;100372.25;2105954;28;3850;-35
2021/05/15 00:10:19;;;;;;;;;;;;;;;20.38;52.53;100363.75;2105088;28;3906;-32
2021/05/15 00:11:19;;;;;;;;;;;;;;;20.39;52.59;100367.41;2106632;28;3893;-34
2021/05/15 00:12:19;;;;;;;;;;;;;;;20.39;52.53;100367.41;2105836;28;4046;-32
2021/05/15 00:13:19;;;;;;;;;;;;;;;20.38;52.56;100369.44;2105859;28;3932;-35
2021/05/15 00:14:19;;;;;;;;;;;;;;;20.38;52.59;100368.59;2105929;28;4073;-34
2021/05/15 00:15:19;;;;;;;;;;;;;;;20.38;52.61;100362.91;2105865;28;4093;-33
2021/05/15 00:16:19;;;;;;;;;;;;;;;20.39;52.58;100364.56;2106211;28;4065;-36
2021/05/15 00:17:20;;;;;;;;;;;;;;;20.39;52.59;100356.84;2105261;28;4072;-36
2021/05/15 00:18:20;;;;;;;;;;;;;;;20.39;52.58;100361.72;2106044;28;4065;-33
2021/05/15 00:19:20;;;;;;;;;;;;;;;20.40;52.54;100357.69;2105010;28;3919;-33
2021/05/15 00:20:20;;;;;;;;;;;;;;;20.39;52.57;100356.03;2106089;28;4077;-34
2021/05/15 00:21:20;;;;;;;;;;;;;;;20.40;52.63;100358.53;2105999;28;4076;-32
2021/05/15 00:22:20;;;;;;;;;;;;;;;20.41;52.62;100353.66;2106526;28;4080;-34
2021/05/15 00:23:20;;;;;;;;;;;;;;;20.40;52.62;100358.53;2105809;28;4047;-34
2021/05/15 00:24:20;;;;;;;;;;;;;;;20.42;52.61;100358.16;2105529;28;4150;-33
2021/05/15 00:25:21;;;;;;;;;;;;;;;20.40;52.63;100358.53;2106253;28;3888;-38
2021/05/15 00:26:21;;;;;;;;;;;;;;;20.41;52.75;100353.66;2105602;28;3894;-34
2021/05/15 00:27:21;;;;;;;;;;;;;;;20.41;52.64;100359.34;2106076;28;4494;-33
2021/05/15 00:28:21;;;;;;;;;;;;;;;20.42;52.80;100355.31;2105557;28;4045;-32
2021/05/15 00:29:21;;;;;;;;;;;;;;;20.41;52.67;100357.34;2104648;28;4042;-34
2021/05/15 00:30:21;;;;;;;;;;;;;;;20.42;52.84;100353.28;2104688;28;4068;-35
2021/05/15 00:31:21;;;;;;;;;;;;;;;20.42;52.64;100349.63;2105917;28;3876;-32
2021/05/15 00:32:21;;;;;;;;;;;;;;;20.43;52.86;100357.00;2106207;28;3890;-34
2021/05/15 00:33:21;;;;;;;;;;;;;;;20.42;52.79;100353.28;2105582;28;4069;-36
2021/05/15 00:34:21;;;;;;;;;;;;;;;20.42;52.63;100355.31;2105584;28;4044;-35
2021/05/15 00:35:22;;;;;;;;;;;;;;;20.41;52.84;100354.50;2105953;28;4058;-33
2021/05/15 00:36:22;;;;;;;;;;;;;;;20.42;53.00;100350.47;2105389;28;3856;-32
2021/05/15 00:37:22;;;;;;;;;;;;;;;20.42;52.92;100353.28;2106146;28;4162;-39
2021/05/15 00:38:22;;;;;;;;;;;;;;;20.43;53.03;100354.97;2105322;28;3954;-35
2021/05/15 00:39:22;;;;;;;;;;;;;;;20.42;52.89;100344.78;2105691;28;4081;-35
2021/05/15 00:40:22;;;;;;;;;;;;;;;20.43;53.07;100346.44;2105684;28;4279;-35
2021/05/15 00:41:22;;;;;;;;;;;;;;;20.43;53.15;100346.44;2106239;28;4132;-34
2021/05/15 00:42:23;;;;;;;;;;;;;;;20.43;53.08;100352.13;2105733;28;4060;-37
2021/05/15 00:43:24;;;;;;;;;;;;;;;20.44;53.01;100350.09;2105541;28;4190;-39
2021/05/15 00:45:24;;;;;;;;;;;;;;;20.43;53.08;100351.31;2105344;28;4064;-34
2021/05/15 00:46:24;;;;;;;;;;;;;;;20.43;52.97;100359.84;2105019;28;4073;-34
2021/05/15 00:47:24;;;;;;;;;;;;;;;20.44;53.02;100355.78;2105998;28;3887;-35
2021/05/15 00:48:25;;;;;;;;;;;;;;;20.43;52.98;100354.97;2105159;28;3912;-39
2021/05/15 00:49:25;;;;;;;;;;;;;;;20.43;52.90;100354.97;2105179;28;3941;-36
2021/05/15 00:50:25;;;;;;;;;;;;;;;20.43;53.09;100357.81;2106024;28;4106;-36
2021/05/15 00:51:25;;;;;;;;;;;;;;;20.44;53.00;100352.94;2105837;28;3876;-34
2021/05/15 00:52:27;;;;;;;;;;;;;;;20.44;53.11;100352.94;2105657;28;4086;-35
2021/05/15 00:53:27;;;;;;;;;;;;;;;20.43;53.06;100349.28;2104877;28;4034;-37
2021/05/15 00:54:28;;;;;;;;;;;;;;;20.43;53.13;100354.16;2104707;28;4250;-39
2021/05/15 00:55:28;;;;;;;;;;;;;;;20.43;53.01;100360.66;2105448;28;4077;-38
2021/05/15 00:56:29;;;;;;;;;;;;;;;20.43;53.13;100351.31;2105375;28;4077;-36
2021/05/15 00:57:29;;;;;;;;;;;;;;;20.42;53.11;100353.28;2105460;28;4028;-39
2021/05/15 00:58:29;;;;;;;;;;;;;;;20.43;53.11;100354.97;2105705;28;3872;-35
2021/05/15 00:59:29;;;;;;;;;;;;;;;20.44;53.04;100359.44;2104792;28;4072;-33
2021/05/15 01:00:30;;;;;;;;;;;;;;;20.44;53.03;100358.63;2106007;28;3868;-37
2021/05/15 01:01:30;;;;;;;;;;;;;;;20.43;53.18;100360.66;2105519;28;4104;-33
2021/05/15 01:02:30;;;;;;;;;;;;;;;20.43;53.23;100351.31;2106510;28;4104;-37
2021/05/15 01:03:30;;;;;;;;;;;;;;;20.43;52.98;100360.66;2104666;28;3885;-33
2021/05/15 01:04:30;;;;;;;;;;;;;;;20.43;53.17;100354.97;2104600;28;4103;-34
2021/05/15 01:05:30;;;;;;;;;;;;;;;20.43;53.01;100357.81;2106137;28;4030;-32
2021/05/15 01:06:30;;;;;;;;;;;;;;;20.43;53.16;100354.97;2104290;28;4090;-36
2021/05/15 01:07:30;;;;;;;;;;;;;;;20.42;53.20;100358.97;2104152;28;3950;-37
2021/05/15 01:08:30;;;;;;;;;;;;;;;20.44;53.14;100364.31;2105696;28;4040;-37
2021/05/15 01:09:31;;;;;;;;;;;;;;;20.43;53.21;100354.16;2104583;28;3904;-36
2021/05/15 01:10:31;;;;;;;;;;;;;;;20.43;53.09;100359.84;2104877;28;3907;-34
2021/05/15 01:11:31;;;;;;;;;;;;;;;20.44;53.21;100358.63;2105367;28;4097;-38
2021/05/15 01:12:31;;;;;;;;;;;;;;;20.44;53.18;100359.44;2104847;28;4167;-37
2021/05/15 01:13:33;;;;;;;;;;;;;;;20.44;53.17;100361.47;2105595;28;3891;-36
2021/05/15 01:14:33;;;;;;;;;;;;;;;20.44;53.20;100358.63;2105573;28;4070;-36
2021/05/15 01:15:33;;;;;;;;;;;;;;;20.44;53.27;100358.63;2105462;28;3912;-34
2021/05/15 01:16:33;;;;;;;;;;;;;;;20.43;53.22;100352.13;2105743;28;4074;-34
2021/05/15 01:17:33;;;;;;;;;;;;;;;20.44;53.26;100348.09;2094106;28;4954;-36
2021/05/15 01:18:34;;;;;;;;;;;;;;;20.44;53.31;100350.09;2096927;28;3874;-34
2021/05/15 01:19:34;;;;;;;;;;;;;;;20.44;53.36;100350.94;2102335;28;3919;-37
2021/05/15 01:20:34;;;;;;;;;;;;;;;20.44;53.30;100336.72;2105669;28;3888;-35
2021/05/15 01:21:34;;;;;;;;;;;;;;;20.45;53.34;100340.38;2105247;28;4083;-34
2021/05/15 01:22:34;;;;;;;;;;;;;;;20.45;53.24;100337.53;2105682;28;4045;-37
2021/05/15 01:23:34;;;;;;;;;;;;;;;20.44;53.29;100353.78;2105797;28;3897;-33
2021/05/15 01:24:34;;;;;;;;;;;;;;;20.43;53.21;100339.94;2104569;28;3901;-36
2021/05/15 01:25:34;;;;;;;;;;;;;;;20.44;53.29;100345.25;2104437;28;3917;-35
2021/05/15 01:26:35;;;;;;;;;;;;;;;20.44;53.26;100335.91;2104617;28;4062;-34
2021/05/15 01:27:35;;;;;;;;;;;;;;;20.43;53.31;100346.44;2102276;28;3927;-36
2021/05/15 01:28:35;;;;;;;;;;;;;;;20.44;53.28;100350.94;2102678;28;4020;-35
2021/05/15 01:29:35;;;;;;;;;;;;;;;20.45;53.29;100346.06;2102334;28;4062;-33
2021/05/15 01:30:35;;;;;;;;;;;;;;;20.44;53.39;100347.25;2103122;28;4082;-36
2021/05/15 01:31:35;;;;;;;;;;;;;;;20.45;53.41;100351.75;2103178;28;3890;-33
2021/05/15 01:32:37;;;;;;;;;;;;;;;20.44;53.51;100350.94;2104645;28;3888;-37
2021/05/15 01:33:37;;;;;;;;;;;;;;;20.45;53.32;100349.75;2105716;28;4060;-35
2021/05/15 01:34:37;;;;;;;;;;;;;;;20.45;53.34;100343.22;2104424;28;3964;-35
2021/05/15 01:35:37;;;;;;;;;;;;;;;20.45;53.36;100348.91;2104821;28;3962;-34
2021/05/15 01:36:40;;;;;;;;;;;;;;;20.45;53.43;100346.91;2105244;28;4091;-36
2021/05/15 01:37:40;;;;;;;;;;;;;;;20.46;53.40;100347.75;2105673;28;4086;-36
2021/05/15 01:38:41;;;;;;;;;;;;;;;20.45;53.47;100346.91;2104817;28;3898;-37
2021/05/15 01:39:41;;;;;;;;;;;;;;;20.45;53.56;100346.06;2104945;28;4130;-38
2021/05/15 01:40:41;;;;;;;;;;;;;;;20.46;53.37;100350.59;2105608;28;4056;-36
2021/05/15 01:41:41;;;;;;;;;;;;;;;20.45;53.33;100346.91;2105279;28;4235;-35
2021/05/15 01:42:41;;;;;;;;;;;;;;;20.44;53.49;100353.78;2104896;28;4006;-36
2021/05/15 01:43:41;;;;;;;;;;;;;;;20.44;53.49;100348.09;2104529;28;3890;-37
2021/05/15 01:44:41;;;;;;;;;;;;;;;20.44;53.49;100350.94;2105583;28;3953;-33
2021/05/15 01:45:41;;;;;;;;;;;;;;;20.45;53.40;100352.59;2104990;28;4293;-32
2021/05/15 01:46:41;;;;;;;;;;;;;;;20.45;53.40;100354.59;2103642;28;4146;-33
2021/05/15 01:47:41;;;;;;;;;;;;;;;20.45;53.33;100351.75;2105440;28;4063;-38
2021/05/15 01:48:42;;;;;;;;;;;;;;;20.45;53.46;100337.53;2104787;28;3889;-37
2021/05/15 01:49:42;;;;;;;;;;;;;;;20.45;53.38;100344.06;2103966;28;4041;-37
2021/05/15 01:50:45;;;;;;;;;;;;;;;20.45;53.39;100335.56;2104914;28;4208;-38
2021/05/15 01:51:45;;;;;;;;;;;;;;;20.45;53.66;100341.22;2104207;28;3895;-37
2021/05/15 01:52:45;;;;;;;;;;;;;;;20.46;53.43;100330.69;2105205;28;4059;-35
2021/05/15 01:53:46;;;;;;;;;;;;;;;20.46;53.41;100337.19;2104857;28;4021;-34
2021/05/15 01:54:46;;;;;;;;;;;;;;;20.47;53.59;100340.84;2104946;28;6721;-35
2021/05/15 01:55:46;;;;;;;;;;;;;;;20.46;53.59;100334.34;2105183;28;3875;-37
2021/05/15 01:56:46;;;;;;;;;;;;;;;20.46;53.55;100339.22;2104389;28;3895;-34
2021/05/15 01:57:46;;;;;;;;;;;;;;;20.47;53.51;100338.00;2105186;28;3912;-35
2021/05/15 01:58:46;;;;;;;;;;;;;;;20.47;53.58;100336.00;2104736;28;4200;-37
2021/05/15 01:59:46;;;;;;;;;;;;;;;20.46;53.46;100334.34;2104516;28;4198;-31
2021/05/15 02:00:46;;;;;;;;;;;;;;;20.47;53.53;100335.19;2105745;28;4059;-35
2021/05/15 02:01:47;;;;;;;;;;;;;;;20.46;53.51;100331.50;2104162;28;3874;-31
2021/05/15 02:02:47;;;;;;;;;;;;;;;20.47;53.49;100335.19;2104357;28;3952;-31
2021/05/15 02:03:47;;;;;;;;;;;;;;;20.47;53.61;100329.50;2104885;28;3983;-33
2021/05/15 02:04:47;;;;;;;;;;;;;;;20.46;53.43;100334.34;2104086;28;4238;-38
2021/05/15 02:05:47;;;;;;;;;;;;;;;20.47;53.66;100332.34;2104798;28;4047;-36
2021/05/15 02:06:47;;;;;;;;;;;;;;;20.47;53.51;100338.00;2103905;28;4058;-35
2021/05/15 02:07:48;;;;;;;;;;;;;;;20.47;53.45;100336.00;2105037;28;4067;-34
2021/05/15 02:08:49;;;;;;;;;;;;;;;20.47;53.64;100333.16;2103687;28;4143;-36
2021/05/15 02:09:49;;;;;;;;;;;;;;;20.47;53.52;100333.16;2104536;28;3855;-35
2021/05/15 02:10:49;;;;;;;;;;;;;;;20.48;53.52;100328.28;2105192;28;4058;-33
2021/05/15 02:11:49;;;;;;;;;;;;;;;20.47;53.62;100326.66;2103161;28;3899;-34
2021/05/15 02:12:49;;;;;;;;;;;;;;;20.48;53.47;100333.97;2104430;28;4058;-37
2021/05/15 02:13:49;;;;;;;;;;;;;;;20.47;53.61;100326.66;2104884;28;4104;-40
2021/05/15 02:14:49;;;;;;;;;;;;;;;20.47;53.52;100327.47;2105155;28;4012;-35
2021/05/15 02:15:49;;;;;;;;;;;;;;;20.46;53.45;100328.66;2105598;28;4039;-38
2021/05/15 02:16:50;;;;;;;;;;;;;;;20.47;53.67;100327.47;2103493;28;4139;-33
2021/05/15 02:17:50;;;;;;;;;;;;;;;20.47;53.62;100326.66;2105097;28;3854;-35
2021/05/15 02:18:50;;;;;;;;;;;;;;;20.48;53.74;100328.28;2104842;28;3861;-39
2021/05/15 02:19:50;;;;;;;;;;;;;;;20.47;53.68;100329.50;2104836;28;4091;-34
2021/05/15 02:20:50;;;;;;;;;;;;;;;20.47;53.78;100327.47;2095953;28;3907;-35
2021/05/15 02:21:50;;;;;;;;;;;;;;;20.47;53.72;100324.63;2094699;28;3868;-34
2021/05/15 02:22:50;;;;;;;;;;;;;;;20.47;53.72;100327.47;2102879;28;4079;-38
2021/05/15 02:23:50;;;;;;;;;;;;;;;20.49;53.74;100326.31;2104870;28;4062;-33
2021/05/15 02:24:50;;;;;;;;;;;;;;;20.47;53.79;100330.31;2104273;28;4026;-35
2021/05/15 02:25:53;;;;;;;;;;;;;;;20.47;53.66;100323.81;2104292;28;3892;-36
2021/05/15 02:26:53;;;;;;;;;;;;;;;20.48;53.77;100319.78;2103790;28;3913;-36
2021/05/15 02:27:53;;;;;;;;;;;;;;;20.47;53.77;100318.94;2104891;28;3851;-39
2021/05/15 02:28:53;;;;;;;;;;;;;;;20.47;53.71;100324.63;2103795;28;4023;-34
2021/05/15 02:29:53;;;;;;;;;;;;;;;20.47;53.63;100324.63;2104688;28;4280;-37
2021/05/15 02:30:54;;;;;;;;;;;;;;;20.47;53.68;100323.81;2104817;28;3784;-38
2021/05/15 02:31:54;;;;;;;;;;;;;;;20.47;53.78;100323.81;2095286;28;3968;-35
2021/05/15 02:32:54;;;;;;;;;;;;;;;20.47;53.78;100316.09;2095875;28;4186;-38
2021/05/15 02:33:54;;;;;;;;;;;;;;;20.46;53.81;100320.16;2104650;28;4057;-38
2021/05/15 02:34:54;;;;;;;;;;;;;;;20.46;53.61;100325.84;2104912;28;4021;-32
2021/05/15 02:35:54;;;;;;;;;;;;;;;20.47;53.82;100323.81;2104417;28;4036;-34
2021/05/15 02:36:54;;;;;;;;;;;;;;;20.47;53.75;100320.97;2104253;28;4143;-34
2021/05/15 02:37:54;;;;;;;;;;;;;;;20.46;53.76;100317.31;2104127;28;4108;-38
2021/05/15 02:38:55;;;;;;;;;;;;;;;20.47;53.90;100313.25;2104482;28;4069;-38
2021/05/15 02:39:55;;;;;;;;;;;;;;;20.47;53.81;100307.59;2104578;28;4092;-36
2021/05/15 02:40:56;;;;;;;;;;;;;;;20.47;53.75;100312.44;2104677;28;4041;-37
2021/05/15 02:41:56;;;;;;;;;;;;;;;20.47;53.78;100307.59;2104792;28;3864;-34
2021/05/15 02:42:56;;;;;;;;;;;;;;;20.47;53.83;100307.59;2104609;28;4010;-37
2021/05/15 02:43:56;;;;;;;;;;;;;;;20.47;53.71;100306.75;2104661;28;4072;-36
2021/05/15 02:44:56;;;;;;;;;;;;;;;20.47;53.74;100304.75;2104548;28;4058;-36
2021/05/15 02:45:56;;;;;;;;;;;;;;;20.49;53.69;100309.25;2104614;28;3895;-37
2021/05/15 02:46:57;;;;;;;;;;;;;;;20.48;53.67;100305.56;2104371;28;3868;-34
2021/05/15 02:47:57;;;;;;;;;;;;;;;20.48;53.64;100302.72;2104151;28;4092;-41
2021/05/15 02:48:57;;;;;;;;;;;;;;;20.49;53.76;100297.88;2105080;28;4080;-35
2021/05/15 02:49:57;;;;;;;;;;;;;;;20.50;53.73;100293.84;2103117;28;4023;-34
2021/05/15 02:50:57;;;;;;;;;;;;;;;20.50;53.68;100305.22;2103772;28;4156;-32
2021/05/15 02:51:57;;;;;;;;;;;;;;;20.49;53.65;100290.19;2104833;28;3906;-36
2021/05/15 02:52:57;;;;;;;;;;;;;;;20.49;53.70;100293.03;2104507;28;4042;-33
2021/05/15 02:53:58;;;;;;;;;;;;;;;20.48;53.67;100285.66;2104232;28;3933;-39
2021/05/15 02:54:58;;;;;;;;;;;;;;;20.50;53.68;100291.00;2104451;28;4050;-37
2021/05/15 02:55:58;;;;;;;;;;;;;;;20.50;53.67;100282.47;2104337;28;3869;-37
2021/05/15 02:56:58;;;;;;;;;;;;;;;20.49;53.71;100286.53;2105130;28;4025;-38
2021/05/15 02:57:58;;;;;;;;;;;;;;;20.50;53.69;100282.47;2103296;28;4110;-42
2021/05/15 02:58:58;;;;;;;;;;;;;;;20.50;53.57;100282.47;2104688;28;4105;-33
2021/05/15 02:59:59;;;;;;;;;;;;;;;20.50;53.53;100276.78;2104718;28;3987;-34
2021/05/15 03:00:59;;;;;;;;;;;;;;;20.51;53.55;100284.13;2104210;28;4127;-35
2021/05/15 03:01:59;;;;;;;;;;;;;;;20.51;53.72;100278.44;2103038;28;4112;-35
2021/05/15 03:02:59;;;;;;;;;;;;;;;20.51;53.71;100278.44;2104738;28;3881;-35
2021/05/15 03:03:59;;;;;;;;;;;;;;;20.51;53.62;100275.59;2103697;28;4046;-35
2021/05/15 03:04:59;;;;;;;;;;;;;;;20.51;53.58;100275.59;2104622;28;4068;-36
2021/05/15 03:05:59;;;;;;;;;;;;;;;20.51;53.63;100275.59;2104417;28;3842;-32
2021/05/15 03:06:59;;;;;;;;;;;;;;;20.51;53.53;100276.44;2104798;28;4186;-33
2021/05/15 03:07:59;;;;;;;;;;;;;;;20.51;53.57;100272.75;2103833;28;3908;-36
2021/05/15 03:09:00;;;;;;;;;;;;;;;20.51;53.65;100278.44;2104574;28;3985;-32
2021/05/15 03:10:00;;;;;;;;;;;;;;;20.51;53.75;100272.75;2104933;28;4008;-34
2021/05/15 03:11:00;;;;;;;;;;;;;;;20.52;53.72;100277.28;2104357;28;3903;-34
2021/05/15 03:12:00;;;;;;;;;;;;;;;20.51;53.73;100278.44;2104379;28;4306;-34
2021/05/15 03:13:00;;;;;;;;;;;;;;;20.51;53.73;100275.59;2104536;28;3815;-37
2021/05/15 03:14:00;;;;;;;;;;;;;;;20.51;53.54;100272.75;2104971;28;4032;-38
2021/05/15 03:15:00;;;;;;;;;;;;;;;20.51;53.69;100272.75;2104957;28;4025;-36
2021/05/15 03:16:01;;;;;;;;;;;;;;;20.51;53.64;100269.91;2104836;28;3871;-36
2021/05/15 03:17:01;;;;;;;;;;;;;;;20.52;53.65;100268.75;2104733;28;3849;-34
2021/05/15 03:18:01;;;;;;;;;;;;;;;20.51;53.61;100276.44;2104368;28;4492;-37
2021/05/15 03:19:01;;;;;;;;;;;;;;;20.51;53.75;100265.09;2094900;28;4039;-36
2021/05/15 03:20:01;;;;;;;;;;;;;;;20.52;53.72;100268.75;2095583;28;4271;-41
2021/05/15 03:21:01;;;;;;;;;;;;;;;20.52;53.67;100268.75;2104537;28;3946;-35
2021/05/15 03:22:01;;;;;;;;;;;;;;;20.52;53.66;100268.75;2102450;28;4047;-37
2021/05/15 03:23:01;;;;;;;;;;;;;;;20.51;53.62;100256.56;2104857;28;4065;-34
2021/05/15 03:24:01;;;;;;;;;;;;;;;20.51;53.71;100262.25;2105006;28;3873;-36
2021/05/15 03:25:01;;;;;;;;;;;;;;;20.51;53.71;100262.25;2104122;28;4069;-34
2021/05/15 03:26:02;;;;;;;;;;;;;;;20.51;53.74;100262.25;2105009;28;3878;-36
2021/05/15 03:27:02;;;;;;;;;;;;;;;20.52;53.55;100268.75;2104064;28;3893;-35
2021/05/15 03:28:02;;;;;;;;;;;;;;;20.51;53.58;100262.25;2104835;28;4078;-32
2021/05/15 03:29:02;;;;;;;;;;;;;;;20.51;53.76;100261.38;2103671;28;4020;-37
2021/05/15 03:30:02;;;;;;;;;;;;;;;20.51;53.76;100265.09;2103999;28;4028;-37
2021/05/15 03:31:02;;;;;;;;;;;;;;;20.51;53.63;100262.25;2104102;28;4147;-33
2021/05/15 03:32:02;;;;;;;;;;;;;;;20.51;53.57;100269.91;2103702;28;4031;-37
2021/05/15 03:33:02;;;;;;;;;;;;;;;20.51;53.68;100270.75;2104783;28;3865;-36
2021/05/15 03:34:03;;;;;;;;;;;;;;;20.50;53.54;100269.09;2104009;28;4036;-34
2021/05/15 03:35:03;;;;;;;;;;;;;;;20.51;53.71;100267.06;2104206;28;4037;-32
2021/05/15 03:36:04;;;;;;;;;;;;;;;20.51;53.58;100269.91;2104460;28;4031;-37
2021/05/15 03:37:04;;;;;;;;;;;;;;;20.51;53.64;100269.91;2103443;28;3858;-35
2021/05/15 03:38:04;;;;;;;;;;;;;;;20.50;53.79;100265.44;2104128;28;4028;-32
2021/05/15 03:39:04;;;;;;;;;;;;;;;20.50;53.65;100266.25;2103069;28;6115;-38
2021/05/15 03:40:05;;;;;;;;;;;;;;;20.50;53.70;100260.56;2104146;28;3864;-37
2021/05/15 03:41:05;;;;;;;;;;;;;;;20.50;53.71;100263.41;2104486;28;3858;-30
2021/05/15 03:42:05;;;;;;;;;;;;;;;20.50;53.70;100265.44;2104775;28;4015;-38
2021/05/15 03:43:05;;;;;;;;;;;;;;;20.51;53.66;100262.25;2104609;28;4212;-36
2021/05/15 03:44:05;;;;;;;;;;;;;;;20.51;53.73;100267.06;2104393;28;3846;-35
2021/05/15 03:45:05;;;;;;;;;;;;;;;20.51;53.62;100264.22;2104537;28;4052;-36
2021/05/15 03:46:05;;;;;;;;;;;;;;;20.51;53.82;100269.91;2105076;28;4046;-34
2021/05/15 03:47:05;;;;;;;;;;;;;;;20.51;53.84;100261.38;2103135;28;3852;-34
2021/05/15 03:48:05;;;;;;;;;;;;;;;20.51;53.68;100261.38;2104398;28;3868;-32
2021/05/15 03:49:06;;;;;;;;;;;;;;;20.51;53.68;100258.53;2105141;28;3825;-35
2021/05/15 03:50:06;;;;;;;;;;;;;;;20.51;53.82;100261.38;2104169;28;4084;-36
2021/05/15 03:51:06;;;;;;;;;;;;;;;20.50;53.77;100260.56;2104754;28;4014;-33
2021/05/15 03:52:06;;;;;;;;;;;;;;;20.50;53.78;100259.75;2104445;28;3999;-38
2021/05/15 03:53:06;;;;;;;;;;;;;;;20.51;53.66;100258.53;2104508;28;4024;-34
2021/05/15 03:54:07;;;;;;;;;;;;;;;20.51;53.88;100250.03;2104563;28;4887;-36
2021/05/15 03:55:07;;;;;;;;;;;;;;;20.51;53.78;100255.69;2105042;28;4012;-35
2021/05/15 03:56:07;;;;;;;;;;;;;;;20.50;53.87;100259.75;2104288;28;4053;-37
2021/05/15 03:57:07;;;;;;;;;;;;;;;20.49;53.75;100256.09;2104034;28;4004;-35
2021/05/15 03:58:07;;;;;;;;;;;;;;;20.51;53.75;100262.25;2104522;28;3988;-40
2021/05/15 03:59:08;;;;;;;;;;;;;;;20.51;53.73;100258.53;2104527;28;4084;-38
2021/05/15 04:00:11;;;;;;;;;;;;;;;20.50;53.78;100254.88;2104825;28;4046;-33
2021/05/15 04:01:11;;;;;;;;;;;;;;;20.52;53.85;100257.38;2104436;28;3987;-35
2021/05/15 04:02:11;;;;;;;;;;;;;;;20.52;53.91;100258.19;2103400;28;4036;-31
2021/05/15 04:03:11;;;;;;;;;;;;;;;20.52;53.84;100257.38;2104498;28;3970;-34
2021/05/15 04:04:11;;;;;;;;;;;;;;;20.52;53.79;100257.38;2104528;28;3994;-35
2021/05/15 04:05:11;;;;;;;;;;;;;;;20.51;53.96;100262.25;2104108;28;4021;-31
2021/05/15 04:06:12;;;;;;;;;;;;;;;20.52;53.84;100263.06;2104986;28;3876;-37
2021/05/15 04:07:12;;;;;;;;;;;;;;;20.52;53.94;100261.03;2104491;28;4010;-37
2021/05/15 04:08:12;;;;;;;;;;;;;;;20.52;53.98;100260.22;2103599;28;3880;-37
2021/05/15 04:09:12;;;;;;;;;;;;;;;20.51;53.91;100259.41;2104589;28;4001;-34
2021/05/15 04:10:12;;;;;;;;;;;;;;;20.52;53.97;100263.88;2104411;28;3948;-35
2021/05/15 04:11:12;;;;;;;;;;;;;;;20.52;53.90;100263.88;2104779;28;4040;-35
2021/05/15 04:12:14;;;;;;;;;;;;;;;20.52;53.95;100260.22;2104292;28;3982;-35
2021/05/15 04:13:23;;;;;;;;;;;;;;;20.52;54.00;100266.72;2102211;28;5175;-40
2021/05/15 04:14:46;;;;;;;;;;;;;;;20.52;53.81;100265.91;2104462;28;3760;-35
2021/05/15 04:15:54;;;;;;;;;;;;;;;20.52;54.06;100263.06;2104322;28;3922;-37
2021/05/15 04:18:03;;;;;;;;;;;;;;;20.52;54.19;100268.75;2104305;28;4048;-38
2021/05/15 04:19:03;;;;;;;;;;;;;;;20.51;54.13;100267.06;2104281;28;4145;-37
2021/05/15 04:20:04;;;;;;;;;;;;;;;20.52;53.93;100265.91;2103879;28;3842;-38
2021/05/15 04:21:04;;;;;;;;;;;;;;;20.52;54.13;100263.06;2104769;28;3804;-33
2021/05/15 04:22:04;;;;;;;;;;;;;;;20.53;54.19;100264.69;2104311;28;4062;-34
2021/05/15 04:23:04;;;;;;;;;;;;;;;20.53;54.19;100264.69;2103343;28;4056;-33
2021/05/15 04:24:04;;;;;;;;;;;;;;;20.53;54.06;100262.72;2105333;28;4021;-36
2021/05/15 04:25:04;;;;;;;;;;;;;;;20.53;54.15;100264.69;2104401;28;3816;-37
2021/05/15 04:26:05;;;;;;;;;;;;;;;20.53;54.06;100262.72;2104489;28;3885;-36
2021/05/15 04:27:05;;;;;;;;;;;;;;;20.53;54.13;100262.72;2104678;28;4118;-38
2021/05/15 04:28:05;;;;;;;;;;;;;;;20.53;54.17;100264.69;2103912;28;4087;-36
2021/05/15 04:29:05;;;;;;;;;;;;;;;20.54;54.11;100263.53;2104633;28;3859;-34
2021/05/15 04:30:05;;;;;;;;;;;;;;;20.54;54.17;100269.22;2104511;28;4025;-32
2021/05/15 04:31:05;;;;;;;;;;;;;;;20.54;54.26;100266.38;2104547;28;4058;-34
2021/05/15 04:32:06;;;;;;;;;;;;;;;20.53;54.03;100257.03;2104425;28;6225;-35
2021/05/15 04:33:06;;;;;;;;;;;;;;;20.53;54.18;100259.88;2103909;28;3998;-36
2021/05/15 04:34:06;;;;;;;;;;;;;;;20.54;54.12;100255.00;2104851;28;4039;-37
2021/05/15 04:35:06;;;;;;;;;;;;;;;20.54;54.09;100260.69;2104772;28;4178;-34
2021/05/15 04:36:07;;;;;;;;;;;;;;;20.53;54.08;100262.72;2103961;28;4001;-36
2021/05/15 04:37:07;;;;;;;;;;;;;;;20.53;54.06;100259.00;2103928;28;4039;-38
2021/05/15 04:38:07;;;;;;;;;;;;;;;20.53;54.09;100262.72;2104043;28;4022;-36
2021/05/15 04:39:07;;;;;;;;;;;;;;;20.54;54.09;100260.69;2104177;28;4044;-33
2021/05/15 04:40:08;;;;;;;;;;;;;;;20.53;54.16;100276.91;2104397;28;4113;-38
2021/05/15 04:41:08;;;;;;;;;;;;;;;20.54;54.04;100266.38;2104750;28;3859;-34
2021/05/15 04:42:08;;;;;;;;;;;;;;;20.53;54.04;100267.53;2104425;28;4046;-33
2021/05/15 04:43:08;;;;;;;;;;;;;;;20.53;54.14;100274.06;2104378;28;3883;-37
2021/05/15 04:44:09;;;;;;;;;;;;;;;20.54;54.01;100277.72;2103610;28;3850;-34
2021/05/15 04:45:09;;;;;;;;;;;;;;;20.52;54.08;100278.09;2104528;28;4112;-37
2021/05/15 04:46:09;;;;;;;;;;;;;;;20.53;54.09;100276.06;2105205;28;4056;-36
2021/05/15 04:47:09;;;;;;;;;;;;;;;20.53;54.01;100278.91;2106302;28;4036;-37
2021/05/15 04:48:09;;;;;;;;;;;;;;;20.52;54.12;100278.09;2105250;28;4035;-39
2021/05/15 04:49:09;;;;;;;;;;;;;;;20.54;54.11;100272.06;2105989;28;3853;-30
2021/05/15 04:50:09;;;;;;;;;;;;;;;20.53;54.06;100282.59;2105698;28;4057;-30
2021/05/15 04:51:09;;;;;;;;;;;;;;;20.54;54.07;100277.72;2105920;28;3800;-33
2021/05/15 04:52:10;;;;;;;;;;;;;;;20.54;54.13;100272.06;2106682;28;3860;-34
2021/05/15 04:53:10;;;;;;;;;;;;;;;20.54;54.12;100272.06;2105845;28;4025;-35
2021/05/15 04:54:10;;;;;;;;;;;;;;;20.53;54.12;100274.06;2104943;28;4042;-32
2021/05/15 04:55:10;;;;;;;;;;;;;;;20.54;54.20;100269.22;2105802;28;3826;-34
2021/05/15 04:56:11;;;;;;;;;;;;;;;20.53;54.05;100276.06;2105934;28;3891;-35
2021/05/15 04:57:12;;;;;;;;;;;;;;;20.53;54.07;100262.72;2105469;28;3980;-40
2021/05/15 04:58:12;;;;;;;;;;;;;;;20.53;54.07;100276.91;2106163;28;4087;-34
2021/05/15 04:59:12;;;;;;;;;;;;;;;20.54;54.21;100277.72;2105646;28;4085;-35
2021/05/15 05:00:13;;;;;;;;;;;;;;;20.54;54.22;100277.72;2105415;28;3968;-34
2021/05/15 05:01:13;;;;;;;;;;;;;;;20.53;54.21;100276.91;2105399;28;3801;-34
2021/05/15 05:02:13;;;;;;;;;;;;;;;20.55;54.18;100283.06;2105582;28;4735;-37
2021/05/15 05:03:14;;;;;;;;;;;;;;;20.54;54.22;100277.72;2106174;28;4125;-40
2021/05/15 05:04:14;;;;;;;;;;;;;;;20.54;54.24;100278.59;2104924;28;3884;-40
2021/05/15 05:05:14;;;;;;;;;;;;;;;20.54;54.18;100284.28;2105535;28;4081;-34
2021/05/15 05:06:14;;;;;;;;;;;;;;;20.54;54.20;100284.28;2105832;28;3882;-35
2021/05/15 05:07:14;;;;;;;;;;;;;;;20.55;54.20;100285.09;2105385;28;3950;-37
2021/05/15 05:08:14;;;;;;;;;;;;;;;20.55;54.17;100285.09;2105994;28;3908;-36
2021/05/15 05:09:14;;;;;;;;;;;;;;;20.54;54.13;100286.25;2105172;28;3922;-36
2021/05/15 05:10:14;;;;;;;;;;;;;;;20.54;54.06;100277.72;2105970;28;4079;-37
2021/05/15 05:11:14;;;;;;;;;;;;;;;20.54;54.28;100284.28;2105893;28;4083;-36
2021/05/15 05:12:15;;;;;;;;;;;;;;;20.54;54.02;100278.59;2105377;28;4078;-36
2021/05/15 05:13:15;;;;;;;;;;;;;;;20.54;54.21;100277.72;2105548;28;4047;-35
2021/05/15 05:14:15;;;;;;;;;;;;;;;20.55;54.14;100279.41;2105920;28;4244;-38
2021/05/15 05:15:15;;;;;;;;;;;;;;;20.54;54.15;100284.28;2104650;28;4086;-34
2021/05/15 05:16:15;;;;;;;;;;;;;;;20.54;54.15;100277.72;2106220;28;4095;-39